createdAt,value
2022-11-30T00:00:00.000Z,79.03
2022-11-30T00:15:00.000Z,79.33
2022-11-30T00:30:00.000Z,79.12
2022-11-30T00:45:00.000Z,79.02
2022-11-30T01:00:00.000Z,80.07
2022-11-30T01:15:00.000Z,80.89
2022-11-30T01:30:00.000Z,80.84
2022-11-30T01:45:00.000Z,80.84
2022-11-30T02:00:00.000Z,81.05
2022-11-30T02:15:00.000Z,81.02
2022-11-30T02:30:00.000Z,81.67
2022-11-30T02:45:00.000Z,81.24
2022-11-30T03:00:00.000Z,80.86
2022-11-30T03:15:00.000Z,80.63
2022-11-30T03:45:00.000Z,78.66
2022-11-30T03:45:00.000Z,78.8
2022-11-30T04:15:00.000Z,79.16
2022-11-30T04:15:00.000Z,79.08
2022-11-30T04:30:00.000Z,78.78
2022-11-30T04:45:00.000Z,78.44
2022-11-30T05:00:00.000Z,78.29
2022-11-30T05:15:00.000Z,78.02
2022-11-30T05:30:00.000Z,78.25
2022-11-30T05:45:00.000Z,77.46
2022-11-30T06:00:00.000Z,77.7
2022-11-30T06:15:00.000Z,77.91
2022-11-30T06:30:00.000Z,77.5
2022-11-30T06:45:00.000Z,76.57
2022-11-30T07:00:00.000Z,77.23
2022-11-30T07:15:00.000Z,76.57
2022-11-30T07:30:00.000Z,76.54
2022-11-30T07:45:00.000Z,75.77
2022-11-30T08:00:00.000Z,75.17
2022-11-30T08:15:00.000Z,76.19
2022-11-30T08:30:00.000Z,77.34
2022-11-30T08:45:00.000Z,76.95
2022-11-30T09:00:00.000Z,76.57
2022-11-30T09:15:00.000Z,76.26
2022-11-30T09:30:00.000Z,74.79
2022-11-30T09:45:00.000Z,73.6
2022-11-30T10:00:00.000Z,73.04
2022-11-30T10:15:00.000Z,72.81
2022-11-30T10:30:00.000Z,72.3
2022-11-30T10:45:00.000Z,71.01
2022-11-30T11:00:00.000Z,69.11
2022-11-30T11:15:00.000Z,67.47
2022-11-30T11:30:00.000Z,68.55
2022-11-30T11:45:00.000Z,70.58
2022-11-30T12:00:00.000Z,70.52
2022-11-30T12:15:00.000Z,71
2022-11-30T12:30:00.000Z,72.07
2022-11-30T12:45:00.000Z,72.39
2022-11-30T13:00:00.000Z,73.46
2022-11-30T13:15:00.000Z,72.88
2022-11-30T13:30:00.000Z,72.99
2022-11-30T13:45:00.000Z,73.8
2022-11-30T14:00:00.000Z,74.28
2022-11-30T14:15:00.000Z,75.02
2022-11-30T14:30:00.000Z,75.24
2022-11-30T14:45:00.000Z,75.28
2022-11-30T15:00:00.000Z,75.82
2022-11-30T15:15:00.000Z,75.7
2022-11-30T15:30:00.000Z,75.08
2022-11-30T15:45:00.000Z,75.31
2022-11-30T16:00:00.000Z,75.6
2022-11-30T16:30:00.000Z,75.28
2022-11-30T16:30:00.000Z,75.6
2022-11-30T16:45:00.000Z,75.87
2022-11-30T17:00:00.000Z,76.42
2022-11-30T17:15:00.000Z,78.02
2022-11-30T17:30:00.000Z,80.01
2022-11-30T17:45:00.000Z,79.33
2022-11-30T18:00:00.000Z,78.9
2022-11-30T18:15:00.000Z,79.41
2022-11-30T18:30:00.000Z,79.99
2022-11-30T18:45:00.000Z,79.91
2022-11-30T19:00:00.000Z,79.82
2022-11-30T19:15:00.000Z,79.15
2022-11-30T19:30:00.000Z,79.6
2022-11-30T19:45:00.000Z,80.74
2022-11-30T20:00:00.000Z,80.18
2022-11-30T20:15:00.000Z,80.12
2022-11-30T20:30:00.000Z,79.93
2022-11-30T20:45:00.000Z,80.47
2022-11-30T21:00:00.000Z,80.58
2022-11-30T21:15:00.000Z,80.91
2022-11-30T21:30:00.000Z,80.79
2022-11-30T21:45:00.000Z,80.43
2022-11-30T22:00:00.000Z,80.13
2022-11-30T22:15:00.000Z,80.28
2022-11-30T22:30:00.000Z,80.34
2022-11-30T22:45:00.000Z,80.26
2022-11-30T23:00:00.000Z,80.19
2022-11-30T23:15:00.000Z,81.12
2022-11-30T23:30:00.000Z,81.5
2022-11-30T23:45:00.000Z,81.38
